sensor_id;sensor_type;location;lat;lon;timestamp;temperature;humidity
69677;DHT22;56914;51.058;9.326;2023-01-26T00:09:17;5.20;64.70
69677;DHT22;56914;51.058;9.326;2023-01-26T00:15:50;5.10;64.20
69677;DHT22;56914;51.058;9.326;2023-01-26T01:33:27;5.40;62.50
69677;DHT22;56914;51.058;9.326;2023-01-26T01:34:31;5.40;62.40
69677;DHT22;56914;51.058;9.326;2023-01-26T01:35:37;5.40;62.40
69677;DHT22;56914;51.058;9.326;2023-01-26T01:36:41;5.50;62.40
69677;DHT22;56914;51.058;9.326;2023-01-26T01:37:46;5.50;62.10
69677;DHT22;56914;51.058;9.326;2023-01-26T01:38:50;5.50;61.70
69677;DHT22;56914;51.058;9.326;2023-01-26T01:39:55;5.40;61.70
69677;DHT22;56914;51.058;9.326;2023-01-26T01:41:01;5.40;61.70
69677;DHT22;56914;51.058;9.326;2023-01-26T01:42:11;5.40;61.60
69677;DHT22;56914;51.058;9.326;2023-01-26T01:43:18;5.30;61.20
69677;DHT22;56914;51.058;9.326;2023-01-26T01:44:24;5.30;61.30
69677;DHT22;56914;51.058;9.326;2023-01-26T01:45:42;5.20;61.40
69677;DHT22;56914;51.058;9.326;2023-01-26T01:46:53;5.10;61.70
69677;DHT22;56914;51.058;9.326;2023-01-26T01:48:01;5.10;61.80
69677;DHT22;56914;51.058;9.326;2023-01-26T01:49:16;5.00;62.10
69677;DHT22;56914;51.058;9.326;2023-01-26T01:50:21;4.90;62.30
69677;DHT22;56914;51.058;9.326;2023-01-26T01:51:32;4.90;62.10
69677;DHT22;56914;51.058;9.326;2023-01-26T01:52:36;5.00;62.20
69677;DHT22;56914;51.058;9.326;2023-01-26T01:53:44;4.90;62.20
69677;DHT22;56914;51.058;9.326;2023-01-26T01:54:53;5.00;62.40
69677;DHT22;56914;51.058;9.326;2023-01-26T01:56:01;5.00;62.40
69677;DHT22;56914;51.058;9.326;2023-01-26T01:57:08;4.90;62.20
69677;DHT22;56914;51.058;9.326;2023-01-26T01:58:17;4.90;62.40
69677;DHT22;56914;51.058;9.326;2023-01-26T01:59:21;5.00;62.50
69677;DHT22;56914;51.058;9.326;2023-01-26T02:00:25;5.00;62.40
69677;DHT22;56914;51.058;9.326;2023-01-26T02:01:32;5.00;62.10
69677;DHT22;56914;51.058;9.326;2023-01-26T02:02:37;4.90;62.20
69677;DHT22;56914;51.058;9.326;2023-01-26T02:03:44;5.00;62.20
69677;DHT22;56914;51.058;9.326;2023-01-26T02:04:51;4.90;62.30
69677;DHT22;56914;51.058;9.326;2023-01-26T02:06:05;5.00;62.20
69677;DHT22;56914;51.058;9.326;2023-01-26T02:07:10;4.90;62.10
69677;DHT22;56914;51.058;9.326;2023-01-26T02:08:15;4.90;62.20
69677;DHT22;56914;51.058;9.326;2023-01-26T02:09:25;4.90;62.30
69677;DHT22;56914;51.058;9.326;2023-01-26T02:10:52;4.90;62.30
69677;DHT22;56914;51.058;9.326;2023-01-26T02:11:58;4.80;62.20
69677;DHT22;56914;51.058;9.326;2023-01-26T02:13:04;4.80;62.30
69677;DHT22;56914;51.058;9.326;2023-01-26T02:14:12;4.70;62.50
69677;DHT22;56914;51.058;9.326;2023-01-26T02:15:16;4.70;62.70
69677;DHT22;56914;51.058;9.326;2023-01-26T02:16:19;4.60;62.90
69677;DHT22;56914;51.058;9.326;2023-01-26T02:17:23;4.60;63.00
69677;DHT22;56914;51.058;9.326;2023-01-26T02:18:28;4.60;63.00
69677;DHT22;56914;51.058;9.326;2023-01-26T02:19:38;4.50;63.20
69677;DHT22;56914;51.058;9.326;2023-01-26T02:20:49;4.60;63.40
69677;DHT22;56914;51.058;9.326;2023-01-26T02:21:59;4.60;63.40
69677;DHT22;56914;51.058;9.326;2023-01-26T02:23:18;4.60;63.50
69677;DHT22;56914;51.058;9.326;2023-01-26T02:24:30;4.60;63.60
69677;DHT22;56914;51.058;9.326;2023-01-26T02:25:40;4.60;63.60
69677;DHT22;56914;51.058;9.326;2023-01-26T02:26:48;4.60;63.50
69677;DHT22;56914;51.058;9.326;2023-01-26T02:27:53;4.60;63.40
69677;DHT22;56914;51.058;9.326;2023-01-26T02:28:57;4.60;63.30
69677;DHT22;56914;51.058;9.326;2023-01-26T02:30:03;4.50;63.10
69677;DHT22;56914;51.058;9.326;2023-01-26T02:31:08;4.50;63.00
69677;DHT22;56914;51.058;9.326;2023-01-26T02:32:12;4.50;63.30
69677;DHT22;56914;51.058;9.326;2023-01-26T02:33:17;4.50;63.20
69677;DHT22;56914;51.058;9.326;2023-01-26T02:34:20;4.40;63.30
69677;DHT22;56914;51.058;9.326;2023-01-26T02:35:22;4.50;63.40
69677;DHT22;56914;51.058;9.326;2023-01-26T02:36:28;4.40;63.30
69677;DHT22;56914;51.058;9.326;2023-01-26T02:37:30;4.50;63.40
69677;DHT22;56914;51.058;9.326;2023-01-26T02:38:39;4.50;63.40
69677;DHT22;56914;51.058;9.326;2023-01-26T02:39:51;4.50;63.30
69677;DHT22;56914;51.058;9.326;2023-01-26T02:41:00;4.40;62.80
69677;DHT22;56914;51.058;9.326;2023-01-26T02:42:08;4.40;63.10
69677;DHT22;56914;51.058;9.326;2023-01-26T02:43:31;4.40;62.80
69677;DHT22;56914;51.058;9.326;2023-01-26T02:44:37;4.30;63.10
69677;DHT22;56914;51.058;9.326;2023-01-26T02:45:42;4.30;63.20
69677;DHT22;56914;51.058;9.326;2023-01-26T02:46:48;4.40;63.30
69677;DHT22;56914;51.058;9.326;2023-01-26T02:47:50;4.30;63.20
69677;DHT22;56914;51.058;9.326;2023-01-26T02:48:56;4.30;63.30
69677;DHT22;56914;51.058;9.326;2023-01-26T02:50:18;4.40;63.40
69677;DHT22;56914;51.058;9.326;2023-01-26T02:51:20;4.30;63.90
69677;DHT22;56914;51.058;9.326;2023-01-26T02:52:27;4.30;63.30
69677;DHT22;56914;51.058;9.326;2023-01-26T02:53:32;4.40;63.40
69677;DHT22;56914;51.058;9.326;2023-01-26T02:54:34;4.40;63.30
69677;DHT22;56914;51.058;9.326;2023-01-26T02:55:55;4.40;63.30
69677;DHT22;56914;51.058;9.326;2023-01-26T02:56:58;4.40;63.20
69677;DHT22;56914;51.058;9.326;2023-01-26T02:58:03;4.40;63.20
69677;DHT22;56914;51.058;9.326;2023-01-26T02:59:09;4.40;63.20
69677;DHT22;56914;51.058;9.326;2023-01-26T03:00:14;4.40;63.20
69677;DHT22;56914;51.058;9.326;2023-01-26T03:01:20;4.40;63.30
69677;DHT22;56914;51.058;9.326;2023-01-26T03:02:28;4.40;63.30
69677;DHT22;56914;51.058;9.326;2023-01-26T03:03:31;4.40;63.10
69677;DHT22;56914;51.058;9.326;2023-01-26T03:04:43;4.30;63.00
69677;DHT22;56914;51.058;9.326;2023-01-26T03:05:47;4.40;63.10
69677;DHT22;56914;51.058;9.326;2023-01-26T03:06:52;4.30;63.10
69677;DHT22;56914;51.058;9.326;2023-01-26T03:07:55;4.30;62.60
69677;DHT22;56914;51.058;9.326;2023-01-26T03:08:58;4.30;62.80
69677;DHT22;56914;51.058;9.326;2023-01-26T03:10:01;4.20;62.90
69677;DHT22;56914;51.058;9.326;2023-01-26T03:11:06;4.20;63.20
69677;DHT22;56914;51.058;9.326;2023-01-26T03:12:09;4.20;63.20
69677;DHT22;56914;51.058;9.326;2023-01-26T03:13:13;4.20;63.20
69677;DHT22;56914;51.058;9.326;2023-01-26T03:14:16;4.20;63.30
69677;DHT22;56914;51.058;9.326;2023-01-26T03:15:19;4.20;63.30
69677;DHT22;56914;51.058;9.326;2023-01-26T03:16:47;4.20;63.40
69677;DHT22;56914;51.058;9.326;2023-01-26T03:17:49;4.20;63.20
69677;DHT22;56914;51.058;9.326;2023-01-26T03:18:52;4.20;63.40
69677;DHT22;56914;51.058;9.326;2023-01-26T03:20:13;4.20;63.50
69677;DHT22;56914;51.058;9.326;2023-01-26T03:21:36;4.20;63.50
69677;DHT22;56914;51.058;9.326;2023-01-26T03:22:57;4.20;63.50
69677;DHT22;56914;51.058;9.326;2023-01-26T03:24:18;4.20;63.40
69677;DHT22;56914;51.058;9.326;2023-01-26T03:25:40;4.10;63.30
69677;DHT22;56914;51.058;9.326;2023-01-26T03:27:01;4.10;63.40
69677;DHT22;56914;51.058;9.326;2023-01-26T03:28:23;4.10;63.50
69677;DHT22;56914;51.058;9.326;2023-01-26T03:29:31;4.10;63.60
69677;DHT22;56914;51.058;9.326;2023-01-26T03:30:34;4.00;63.70
69677;DHT22;56914;51.058;9.326;2023-01-26T03:31:38;4.00;63.60
69677;DHT22;56914;51.058;9.326;2023-01-26T03:32:41;4.00;63.50
69677;DHT22;56914;51.058;9.326;2023-01-26T03:33:48;4.10;63.70
69677;DHT22;56914;51.058;9.326;2023-01-26T03:34:50;4.00;63.60
69677;DHT22;56914;51.058;9.326;2023-01-26T03:35:54;4.00;63.50
69677;DHT22;56914;51.058;9.326;2023-01-26T03:36:57;4.00;63.50
69677;DHT22;56914;51.058;9.326;2023-01-26T03:38:01;4.00;63.50
69677;DHT22;56914;51.058;9.326;2023-01-26T03:39:04;4.00;63.10
69677;DHT22;56914;51.058;9.326;2023-01-26T03:40:10;4.00;63.40
69677;DHT22;56914;51.058;9.326;2023-01-26T03:41:33;4.00;63.10
69677;DHT22;56914;51.058;9.326;2023-01-26T03:42:54;4.00;63.10
69677;DHT22;56914;51.058;9.326;2023-01-26T03:44:16;3.90;63.10
69677;DHT22;56914;51.058;9.326;2023-01-26T03:45:37;4.00;63.20
69677;DHT22;56914;51.058;9.326;2023-01-26T03:46:57;4.00;63.30
69677;DHT22;56914;51.058;9.326;2023-01-26T03:48:18;3.90;63.00
69677;DHT22;56914;51.058;9.326;2023-01-26T03:49:39;3.90;63.10
69677;DHT22;56914;51.058;9.326;2023-01-26T03:50:59;3.90;63.20
69677;DHT22;56914;51.058;9.326;2023-01-26T03:52:20;4.00;63.10
69677;DHT22;56914;51.058;9.326;2023-01-26T03:53:42;3.90;63.10
69677;DHT22;56914;51.058;9.326;2023-01-26T03:55:04;3.90;63.10
69677;DHT22;56914;51.058;9.326;2023-01-26T03:56:25;3.90;62.70
69677;DHT22;56914;51.058;9.326;2023-01-26T03:57:36;3.90;62.80
69677;DHT22;56914;51.058;9.326;2023-01-26T03:58:38;3.80;63.00
69677;DHT22;56914;51.058;9.326;2023-01-26T03:59:45;3.80;63.00
69677;DHT22;56914;51.058;9.326;2023-01-26T04:00:48;3.80;62.90
69677;DHT22;56914;51.058;9.326;2023-01-26T04:01:51;3.80;63.00
69677;DHT22;56914;51.058;9.326;2023-01-26T04:03:11;3.80;62.60
69677;DHT22;56914;51.058;9.326;2023-01-26T04:04:32;3.80;62.60
69677;DHT22;56914;51.058;9.326;2023-01-26T04:05:57;3.80;62.90
69677;DHT22;56914;51.058;9.326;2023-01-26T04:07:18;3.80;63.00
69677;DHT22;56914;51.058;9.326;2023-01-26T04:08:38;3.80;62.80
69677;DHT22;56914;51.058;9.326;2023-01-26T04:09:41;3.80;62.80
69677;DHT22;56914;51.058;9.326;2023-01-26T04:10:43;3.90;62.70
69677;DHT22;56914;51.058;9.326;2023-01-26T04:11:47;3.90;62.60
69677;DHT22;56914;51.058;9.326;2023-01-26T04:12:52;3.90;62.60
69677;DHT22;56914;51.058;9.326;2023-01-26T04:14:14;3.90;62.70
69677;DHT22;56914;51.058;9.326;2023-01-26T04:15:51;3.90;62.50
69677;DHT22;56914;51.058;9.326;2023-01-26T04:17:12;3.90;62.70
69677;DHT22;56914;51.058;9.326;2023-01-26T04:18:33;3.90;62.70
69677;DHT22;56914;51.058;9.326;2023-01-26T04:19:54;4.00;62.70
69677;DHT22;56914;51.058;9.326;2023-01-26T04:21:15;3.90;62.70
69677;DHT22;56914;51.058;9.326;2023-01-26T04:22:34;4.00;62.70
69677;DHT22;56914;51.058;9.326;2023-01-26T04:23:41;4.00;62.50
69677;DHT22;56914;51.058;9.326;2023-01-26T04:24:44;4.00;62.50
69677;DHT22;56914;51.058;9.326;2023-01-26T04:25:48;4.00;62.40
69677;DHT22;56914;51.058;9.326;2023-01-26T04:26:50;4.00;62.80
69677;DHT22;56914;51.058;9.326;2023-01-26T04:27:53;4.00;62.20
69677;DHT22;56914;51.058;9.326;2023-01-26T04:28:58;4.00;62.20
69677;DHT22;56914;51.058;9.326;2023-01-26T04:30:02;3.90;62.30
69677;DHT22;56914;51.058;9.326;2023-01-26T04:31:08;3.90;62.20
69677;DHT22;56914;51.058;9.326;2023-01-26T04:32:11;3.90;62.30
69677;DHT22;56914;51.058;9.326;2023-01-26T04:33:16;3.90;62.40
69677;DHT22;56914;51.058;9.326;2023-01-26T04:34:20;3.90;62.30
69677;DHT22;56914;51.058;9.326;2023-01-26T04:35:23;3.90;62.40
69677;DHT22;56914;51.058;9.326;2023-01-26T04:36:28;3.90;62.50
69677;DHT22;56914;51.058;9.326;2023-01-26T04:37:31;4.00;62.50
69677;DHT22;56914;51.058;9.326;2023-01-26T04:38:34;3.90;62.50
69677;DHT22;56914;51.058;9.326;2023-01-26T04:39:37;3.90;62.40
69677;DHT22;56914;51.058;9.326;2023-01-26T04:40:40;3.90;62.40
69677;DHT22;56914;51.058;9.326;2023-01-26T04:41:43;3.90;62.10
69677;DHT22;56914;51.058;9.326;2023-01-26T04:42:47;3.90;62.20
69677;DHT22;56914;51.058;9.326;2023-01-26T04:43:49;3.90;62.30
69677;DHT22;56914;51.058;9.326;2023-01-26T04:44:53;3.90;62.50
69677;DHT22;56914;51.058;9.326;2023-01-26T04:45:59;3.90;62.50
69677;DHT22;56914;51.058;9.326;2023-01-26T04:47:04;3.90;62.50
69677;DHT22;56914;51.058;9.326;2023-01-26T04:48:06;3.90;62.50
69677;DHT22;56914;51.058;9.326;2023-01-26T04:49:10;3.90;62.50
69677;DHT22;56914;51.058;9.326;2023-01-26T04:50:14;4.00;62.50
69677;DHT22;56914;51.058;9.326;2023-01-26T04:51:20;4.00;62.50
69677;DHT22;56914;51.058;9.326;2023-01-26T04:52:23;4.00;62.50
69677;DHT22;56914;51.058;9.326;2023-01-26T04:53:28;4.00;62.50
69677;DHT22;56914;51.058;9.326;2023-01-26T04:54:30;3.90;62.40
69677;DHT22;56914;51.058;9.326;2023-01-26T04:55:34;3.90;62.50
69677;DHT22;56914;51.058;9.326;2023-01-26T04:56:36;3.90;62.60
69677;DHT22;56914;51.058;9.326;2023-01-26T04:57:39;3.80;62.60
69677;DHT22;56914;51.058;9.326;2023-01-26T04:58:42;3.90;62.90
69677;DHT22;56914;51.058;9.326;2023-01-26T04:59:45;3.90;62.70
69677;DHT22;56914;51.058;9.326;2023-01-26T05:00:52;3.80;62.80
69677;DHT22;56914;51.058;9.326;2023-01-26T05:01:55;3.80;62.80
69677;DHT22;56914;51.058;9.326;2023-01-26T05:02:59;3.80;62.90
69677;DHT22;56914;51.058;9.326;2023-01-26T05:04:04;3.80;63.00
69677;DHT22;56914;51.058;9.326;2023-01-26T05:05:07;3.80;62.90
69677;DHT22;56914;51.058;9.326;2023-01-26T05:06:11;3.80;62.80
69677;DHT22;56914;51.058;9.326;2023-01-26T05:07:13;3.80;62.70
69677;DHT22;56914;51.058;9.326;2023-01-26T05:08:17;3.80;62.50
69677;DHT22;56914;51.058;9.326;2023-01-26T05:09:22;3.70;62.70
69677;DHT22;56914;51.058;9.326;2023-01-26T05:10:25;3.80;62.60
69677;DHT22;56914;51.058;9.326;2023-01-26T05:11:28;3.80;62.60
69677;DHT22;56914;51.058;9.326;2023-01-26T05:12:32;3.70;62.70
69677;DHT22;56914;51.058;9.326;2023-01-26T05:13:34;3.80;62.90
69677;DHT22;56914;51.058;9.326;2023-01-26T05:14:38;3.70;62.90
69677;DHT22;56914;51.058;9.326;2023-01-26T05:15:40;3.70;62.80
69677;DHT22;56914;51.058;9.326;2023-01-26T05:16:44;3.70;62.90
69677;DHT22;56914;51.058;9.326;2023-01-26T05:17:46;3.70;62.70
69677;DHT22;56914;51.058;9.326;2023-01-26T05:18:52;3.70;62.90
69677;DHT22;56914;51.058;9.326;2023-01-26T05:19:54;3.70;63.00
69677;DHT22;56914;51.058;9.326;2023-01-26T05:20:57;3.70;63.00
69677;DHT22;56914;51.058;9.326;2023-01-26T05:22:00;3.70;62.60
69677;DHT22;56914;51.058;9.326;2023-01-26T05:23:03;3.70;62.80
69677;DHT22;56914;51.058;9.326;2023-01-26T05:24:06;3.70;62.70
69677;DHT22;56914;51.058;9.326;2023-01-26T05:25:10;3.70;63.00
69677;DHT22;56914;51.058;9.326;2023-01-26T05:26:13;3.70;62.90
69677;DHT22;56914;51.058;9.326;2023-01-26T05:27:16;3.80;63.00
69677;DHT22;56914;51.058;9.326;2023-01-26T05:28:24;3.80;63.00
69677;DHT22;56914;51.058;9.326;2023-01-26T05:29:27;3.80;62.90
69677;DHT22;56914;51.058;9.326;2023-01-26T05:30:30;3.80;63.00
69677;DHT22;56914;51.058;9.326;2023-01-26T05:31:33;3.80;63.00
69677;DHT22;56914;51.058;9.326;2023-01-26T05:32:36;3.80;63.60
69677;DHT22;56914;51.058;9.326;2023-01-26T05:33:39;3.70;63.00
69677;DHT22;56914;51.058;9.326;2023-01-26T05:34:43;3.70;63.00
69677;DHT22;56914;51.058;9.326;2023-01-26T05:35:47;3.70;62.90
69677;DHT22;56914;51.058;9.326;2023-01-26T05:36:50;3.70;63.00
69677;DHT22;56914;51.058;9.326;2023-01-26T05:37:53;3.70;63.00
69677;DHT22;56914;51.058;9.326;2023-01-26T05:38:56;3.80;63.00
69677;DHT22;56914;51.058;9.326;2023-01-26T05:39:59;3.80;63.00
69677;DHT22;56914;51.058;9.326;2023-01-26T05:41:02;3.80;63.00
69677;DHT22;56914;51.058;9.326;2023-01-26T05:42:05;3.80;62.90
69677;DHT22;56914;51.058;9.326;2023-01-26T05:43:08;3.70;62.40
69677;DHT22;56914;51.058;9.326;2023-01-26T05:44:11;3.70;62.70
69677;DHT22;56914;51.058;9.326;2023-01-26T05:45:14;3.70;62.90
69677;DHT22;56914;51.058;9.326;2023-01-26T05:46:17;3.70;62.70
69677;DHT22;56914;51.058;9.326;2023-01-26T05:47:19;3.70;62.60
69677;DHT22;56914;51.058;9.326;2023-01-26T05:48:23;3.70;62.50
69677;DHT22;56914;51.058;9.326;2023-01-26T05:49:33;3.70;62.30
69677;DHT22;56914;51.058;9.326;2023-01-26T05:50:43;3.70;62.40
69677;DHT22;56914;51.058;9.326;2023-01-26T05:51:46;3.70;62.40
69677;DHT22;56914;51.058;9.326;2023-01-26T05:52:49;3.70;62.90
69677;DHT22;56914;51.058;9.326;2023-01-26T05:53:52;3.70;61.30
69677;DHT22;56914;51.058;9.326;2023-01-26T05:54:57;3.70;61.50
69677;DHT22;56914;51.058;9.326;2023-01-26T05:56:01;3.60;61.60
69677;DHT22;56914;51.058;9.326;2023-01-26T05:57:03;3.60;61.30
69677;DHT22;56914;51.058;9.326;2023-01-26T05:58:07;3.60;61.60
69677;DHT22;56914;51.058;9.326;2023-01-26T05:59:09;3.60;61.80
69677;DHT22;56914;51.058;9.326;2023-01-26T06:00:13;3.60;61.60
69677;DHT22;56914;51.058;9.326;2023-01-26T06:01:16;3.70;61.70
69677;DHT22;56914;51.058;9.326;2023-01-26T06:02:19;3.60;61.30
69677;DHT22;56914;51.058;9.326;2023-01-26T06:03:22;3.60;61.50
69677;DHT22;56914;51.058;9.326;2023-01-26T06:04:26;3.60;61.60
69677;DHT22;56914;51.058;9.326;2023-01-26T06:05:29;3.60;61.80
69677;DHT22;56914;51.058;9.326;2023-01-26T06:06:33;3.60;61.50
69677;DHT22;56914;51.058;9.326;2023-01-26T06:07:36;3.60;61.20
69677;DHT22;56914;51.058;9.326;2023-01-26T06:08:39;3.60;61.40
69677;DHT22;56914;51.058;9.326;2023-01-26T06:09:41;3.60;61.40
69677;DHT22;56914;51.058;9.326;2023-01-26T06:10:46;3.70;61.40
69677;DHT22;56914;51.058;9.326;2023-01-26T06:11:48;3.70;61.30
69677;DHT22;56914;51.058;9.326;2023-01-26T06:12:51;3.70;61.20
69677;DHT22;56914;51.058;9.326;2023-01-26T06:13:53;3.80;61.20
69677;DHT22;56914;51.058;9.326;2023-01-26T06:14:57;3.80;61.20
69677;DHT22;56914;51.058;9.326;2023-01-26T06:15:59;3.80;61.30
69677;DHT22;56914;51.058;9.326;2023-01-26T06:17:03;3.80;61.20
69677;DHT22;56914;51.058;9.326;2023-01-26T06:18:05;3.80;61.10
69677;DHT22;56914;51.058;9.326;2023-01-26T06:19:09;3.80;60.90
69677;DHT22;56914;51.058;9.326;2023-01-26T06:20:12;3.90;61.10
69677;DHT22;56914;51.058;9.326;2023-01-26T06:21:16;3.90;61.10
69677;DHT22;56914;51.058;9.326;2023-01-26T06:22:19;3.90;60.80
69677;DHT22;56914;51.058;9.326;2023-01-26T06:23:22;4.00;60.80
69677;DHT22;56914;51.058;9.326;2023-01-26T06:24:25;4.00;60.90
69677;DHT22;56914;51.058;9.326;2023-01-26T06:25:28;4.00;61.00
69677;DHT22;56914;51.058;9.326;2023-01-26T06:26:31;4.00;61.00
69677;DHT22;56914;51.058;9.326;2023-01-26T06:27:34;4.00;61.00
69677;DHT22;56914;51.058;9.326;2023-01-26T06:28:40;4.10;61.10
69677;DHT22;56914;51.058;9.326;2023-01-26T06:29:42;4.10;61.20
69677;DHT22;56914;51.058;9.326;2023-01-26T06:30:46;4.20;61.20
69677;DHT22;56914;51.058;9.326;2023-01-26T06:31:48;4.20;60.80
69677;DHT22;56914;51.058;9.326;2023-01-26T06:32:52;4.20;60.70
69677;DHT22;56914;51.058;9.326;2023-01-26T06:33:59;4.20;60.80
69677;DHT22;56914;51.058;9.326;2023-01-26T06:35:02;4.20;60.80
69677;DHT22;56914;51.058;9.326;2023-01-26T06:36:12;4.20;60.90
69677;DHT22;56914;51.058;9.326;2023-01-26T06:37:15;4.20;61.00
69677;DHT22;56914;51.058;9.326;2023-01-26T06:38:20;4.30;60.70
69677;DHT22;56914;51.058;9.326;2023-01-26T06:39:23;4.20;60.60
69677;DHT22;56914;51.058;9.326;2023-01-26T06:40:28;4.30;60.90
69677;DHT22;56914;51.058;9.326;2023-01-26T06:41:32;4.30;60.90
69677;DHT22;56914;51.058;9.326;2023-01-26T06:42:37;4.30;61.00
69677;DHT22;56914;51.058;9.326;2023-01-26T06:43:44;4.40;60.90
69677;DHT22;56914;51.058;9.326;2023-01-26T06:44:49;4.40;60.90
69677;DHT22;56914;51.058;9.326;2023-01-26T06:45:54;4.40;60.90
69677;DHT22;56914;51.058;9.326;2023-01-26T06:47:00;4.40;60.80
69677;DHT22;56914;51.058;9.326;2023-01-26T06:48:07;4.50;60.80
69677;DHT22;56914;51.058;9.326;2023-01-26T06:49:10;4.50;60.40
69677;DHT22;56914;51.058;9.326;2023-01-26T06:50:18;4.50;60.00
69677;DHT22;56914;51.058;9.326;2023-01-26T06:51:43;4.50;60.10
69677;DHT22;56914;51.058;9.326;2023-01-26T06:52:50;4.50;60.30
69677;DHT22;56914;51.058;9.326;2023-01-26T06:53:57;4.50;60.40
69677;DHT22;56914;51.058;9.326;2023-01-26T06:55:03;4.50;60.50
69677;DHT22;56914;51.058;9.326;2023-01-26T06:56:07;4.60;60.50
69677;DHT22;56914;51.058;9.326;2023-01-26T06:57:09;4.60;60.40
69677;DHT22;56914;51.058;9.326;2023-01-26T06:58:12;4.60;60.40
69677;DHT22;56914;51.058;9.326;2023-01-26T06:59:16;4.60;60.40
69677;DHT22;56914;51.058;9.326;2023-01-26T07:00:20;4.60;60.40
69677;DHT22;56914;51.058;9.326;2023-01-26T07:01:25;4.60;60.50
69677;DHT22;56914;51.058;9.326;2023-01-26T07:02:28;4.60;60.50
69677;DHT22;56914;51.058;9.326;2023-01-26T07:03:31;4.60;60.50
69677;DHT22;56914;51.058;9.326;2023-01-26T07:04:33;4.60;60.30
69677;DHT22;56914;51.058;9.326;2023-01-26T07:05:37;4.60;60.20
69677;DHT22;56914;51.058;9.326;2023-01-26T07:06:40;4.60;59.90
69677;DHT22;56914;51.058;9.326;2023-01-26T07:07:44;4.60;60.20
69677;DHT22;56914;51.058;9.326;2023-01-26T07:08:47;4.60;60.30
69677;DHT22;56914;51.058;9.326;2023-01-26T07:09:52;4.60;60.30
69677;DHT22;56914;51.058;9.326;2023-01-26T07:10:56;4.60;60.40
69677;DHT22;56914;51.058;9.326;2023-01-26T07:11:59;4.60;60.90
69677;DHT22;56914;51.058;9.326;2023-01-26T07:13:04;4.60;60.30
69677;DHT22;56914;51.058;9.326;2023-01-26T07:14:08;4.60;60.40
69677;DHT22;56914;51.058;9.326;2023-01-26T07:15:11;4.60;60.20
69677;DHT22;56914;51.058;9.326;2023-01-26T07:16:16;4.60;60.50
69677;DHT22;56914;51.058;9.326;2023-01-26T07:17:19;4.60;60.50
69677;DHT22;56914;51.058;9.326;2023-01-26T07:18:23;4.60;60.60
69677;DHT22;56914;51.058;9.326;2023-01-26T07:19:28;4.60;60.50
69677;DHT22;56914;51.058;9.326;2023-01-26T07:20:36;4.60;60.30
69677;DHT22;56914;51.058;9.326;2023-01-26T07:21:39;4.60;60.50
69677;DHT22;56914;51.058;9.326;2023-01-26T07:22:42;4.60;60.50
69677;DHT22;56914;51.058;9.326;2023-01-26T07:23:46;4.60;60.40
69677;DHT22;56914;51.058;9.326;2023-01-26T07:25:04;4.60;60.30
69677;DHT22;56914;51.058;9.326;2023-01-26T07:26:12;4.60;60.30
69677;DHT22;56914;51.058;9.326;2023-01-26T07:27:17;4.60;60.60
69677;DHT22;56914;51.058;9.326;2023-01-26T07:28:22;4.60;60.70
69677;DHT22;56914;51.058;9.326;2023-01-26T07:29:29;4.60;60.70
69677;DHT22;56914;51.058;9.326;2023-01-26T07:30:35;4.60;60.80
69677;DHT22;56914;51.058;9.326;2023-01-26T07:31:37;4.60;60.80
69677;DHT22;56914;51.058;9.326;2023-01-26T07:32:42;4.60;60.80
69677;DHT22;56914;51.058;9.326;2023-01-26T07:33:45;4.60;60.90
69677;DHT22;56914;51.058;9.326;2023-01-26T07:34:48;4.60;60.90
69677;DHT22;56914;51.058;9.326;2023-01-26T07:35:52;4.60;60.90
69677;DHT22;56914;51.058;9.326;2023-01-26T07:36:55;4.70;60.70
69677;DHT22;56914;51.058;9.326;2023-01-26T07:37:58;4.70;60.80
69677;DHT22;56914;51.058;9.326;2023-01-26T07:39:02;4.70;60.80
69677;DHT22;56914;51.058;9.326;2023-01-26T07:40:11;4.70;60.80
69677;DHT22;56914;51.058;9.326;2023-01-26T07:41:15;4.70;60.80
69677;DHT22;56914;51.058;9.326;2023-01-26T07:42:19;4.70;60.70
69677;DHT22;56914;51.058;9.326;2023-01-26T07:43:24;4.70;60.80
69677;DHT22;56914;51.058;9.326;2023-01-26T07:44:27;4.70;60.70
69677;DHT22;56914;51.058;9.326;2023-01-26T07:45:32;4.80;60.70
69677;DHT22;56914;51.058;9.326;2023-01-26T07:46:36;4.80;60.60
69677;DHT22;56914;51.058;9.326;2023-01-26T07:47:39;4.80;60.60
69677;DHT22;56914;51.058;9.326;2023-01-26T07:48:42;4.80;60.40
69677;DHT22;56914;51.058;9.326;2023-01-26T07:49:46;4.80;60.70
69677;DHT22;56914;51.058;9.326;2023-01-26T07:50:50;4.80;60.50
69677;DHT22;56914;51.058;9.326;2023-01-26T07:51:53;4.80;60.50
69677;DHT22;56914;51.058;9.326;2023-01-26T07:53:00;4.80;60.60
69677;DHT22;56914;51.058;9.326;2023-01-26T07:54:03;4.80;60.60
69677;DHT22;56914;51.058;9.326;2023-01-26T07:55:07;4.80;60.70
69677;DHT22;56914;51.058;9.326;2023-01-26T07:56:15;4.80;60.70
69677;DHT22;56914;51.058;9.326;2023-01-26T07:57:20;4.80;60.80
69677;DHT22;56914;51.058;9.326;2023-01-26T07:58:22;4.90;60.80
69677;DHT22;56914;51.058;9.326;2023-01-26T07:59:54;4.90;60.80
69677;DHT22;56914;51.058;9.326;2023-01-26T08:01:41;4.90;60.80
